createdAt,value
2018-03-01T00:00:29.315Z,93.94
2018-03-01T00:02:58.679Z,93.65
2018-03-01T00:05:29.118Z,94.54
2018-03-01T00:07:58.993Z,93.87
2018-03-01T00:10:29.766Z,94.00
2018-03-01T00:12:59.064Z,93.49
2018-03-01T00:15:28.531Z,94.68
2018-03-01T00:17:57.824Z,94.38
2018-03-01T00:20:27.083Z,94.00
2018-03-01T00:22:56.598Z,94.42
2018-03-01T00:25:25.783Z,94.42
2018-03-01T00:27:54.938Z,93.45
2018-03-01T00:30:26.663Z,93.58
2018-03-01T00:32:57.426Z,94.14
2018-03-01T00:35:26.561Z,93.87
2018-03-01T00:37:55.995Z,93.94
2018-03-01T00:40:25.365Z,93.70
2018-03-01T00:42:54.468Z,93.52
2018-03-01T00:45:25.996Z,93.06
2018-03-01T00:47:56.628Z,93.10
2018-03-01T00:50:26.545Z,93.22
2018-03-01T00:52:58.551Z,93.63
2018-03-01T00:55:34.568Z,93.59
2018-03-01T00:58:05.916Z,93.48
2018-03-01T01:00:39.530Z,93.69
2018-03-01T01:03:08.704Z,93.42
2018-03-01T01:05:38.138Z,93.68
2018-03-01T01:08:09.205Z,93.97
2018-03-01T01:10:38.141Z,93.83
2018-03-01T01:13:09.852Z,94.15
2018-03-01T01:15:39.122Z,93.87
2018-03-01T01:18:08.227Z,94.26
2018-03-01T01:20:39.286Z,94.32
2018-03-01T01:23:10.190Z,94.28
2018-03-01T01:25:40.181Z,93.94
2018-03-01T01:28:11.776Z,94.05
2018-03-01T01:30:41.916Z,93.68
2018-03-01T01:33:11.929Z,93.54
2018-03-01T01:38:16.244Z,93.55
2018-03-01T01:40:46.431Z,93.43
2018-03-01T01:43:16.286Z,93.20
2018-03-01T01:45:45.480Z,93.55
2018-03-01T01:48:14.891Z,93.80
2018-03-01T01:53:34.081Z,93.76
2018-03-01T01:56:03.176Z,93.46
2018-03-01T02:01:09.751Z,93.86
2018-03-01T02:03:39.046Z,93.84
2018-03-01T02:06:10.842Z,93.95
2018-03-01T02:08:40.509Z,92.98
2018-03-01T02:11:10.570Z,92.98
2018-03-01T02:13:40.675Z,92.96
2018-03-01T02:16:09.845Z,92.96
2018-03-01T02:18:39.845Z,93.23
2018-03-01T02:21:10.677Z,92.94
2018-03-01T02:23:40.824Z,93.40
2018-03-01T02:26:11.542Z,93.71
2018-03-01T02:28:40.591Z,93.67
2018-03-01T02:31:10.148Z,93.63
2018-03-01T02:33:39.717Z,93.56
2018-03-01T02:36:08.950Z,93.49
2018-03-01T02:38:39.766Z,93.52
2018-03-01T02:41:10.856Z,93.56
2018-03-01T02:43:42.998Z,93.49
2018-03-01T02:46:12.338Z,93.42
2018-03-01T02:48:41.604Z,93.43
2018-03-01T02:51:20.451Z,93.62
2018-03-01T02:53:51.172Z,93.46
2018-03-01T02:56:21.046Z,93.35
2018-03-01T02:58:53.006Z,93.56
2018-03-01T03:01:24.251Z,93.29
2018-03-01T03:03:54.422Z,92.87
2018-03-01T03:06:24.514Z,93.21
2018-03-01T03:08:53.930Z,93.47
2018-03-01T03:11:23.164Z,93.61
2018-03-01T03:13:52.471Z,93.22
2018-03-01T03:16:21.810Z,93.14
2018-03-01T03:18:52.754Z,93.17
2018-03-01T03:21:22.745Z,93.51
2018-03-01T03:23:53.779Z,93.45
2018-03-01T03:26:23.680Z,93.59
2018-03-01T03:28:53.704Z,94.02
2018-03-01T03:31:23.662Z,93.99
2018-03-01T03:33:52.763Z,93.89
2018-03-01T03:36:22.754Z,93.85
2018-03-01T03:38:53.397Z,93.61
2018-03-01T03:41:23.101Z,93.38
2018-03-01T03:43:52.200Z,93.51
2018-03-01T03:46:22.169Z,93.42
2018-03-01T03:48:53.076Z,93.32
2018-03-01T03:51:24.157Z,93.38
2018-03-01T03:53:54.225Z,93.37
2018-03-01T03:56:23.384Z,93.50
2018-03-01T04:01:27.011Z,93.76
2018-03-01T04:03:56.968Z,93.69
2018-03-01T04:06:26.157Z,93.46
2018-03-01T04:08:56.546Z,93.46
2018-03-01T04:14:01.940Z,93.37
2018-03-01T04:16:32.891Z,93.31
2018-03-01T04:19:03.057Z,93.36
2018-03-01T04:21:32.365Z,93.31
2018-03-01T04:24:02.477Z,93.48
2018-03-01T04:26:31.825Z,93.19
2018-03-01T04:29:01.925Z,93.37
2018-03-01T04:31:31.135Z,93.81
2018-03-01T04:34:00.497Z,94.02
2018-03-01T04:36:31.382Z,94.30
2018-03-01T04:39:03.016Z,94.04
2018-03-01T04:41:32.212Z,93.78
2018-03-01T04:44:02.356Z,93.53
2018-03-01T04:46:34.096Z,93.66
2018-03-01T04:49:03.022Z,93.11
2018-03-01T04:51:32.219Z,93.61
2018-03-01T04:54:02.441Z,94.17
2018-03-01T04:56:33.112Z,92.71
2018-03-01T04:59:04.244Z,92.67
2018-03-01T05:01:34.092Z,92.37
2018-03-01T05:04:03.329Z,91.14
2018-03-01T05:06:34.469Z,92.27
2018-03-01T05:09:03.690Z,92.09
2018-03-01T05:11:34.470Z,92.38
2018-03-01T05:14:04.506Z,91.69
2018-03-01T05:16:34.467Z,92.09
2018-03-01T05:19:03.861Z,91.89
2018-03-01T05:24:11.367Z,91.56
2018-03-01T05:26:40.608Z,92.42
2018-03-01T05:29:10.585Z,92.18
2018-03-01T05:31:40.641Z,91.56
2018-03-01T05:34:09.930Z,91.84
2018-03-01T05:36:40.392Z,91.92
2018-03-01T05:39:12.366Z,89.84
2018-03-01T05:41:44.393Z,89.64
2018-03-01T05:44:13.686Z,89.02
2018-03-01T05:46:42.894Z,90.61
2018-03-01T05:49:14.715Z,90.42
2018-03-01T05:51:48.601Z,89.61
2018-03-01T05:54:19.036Z,87.73
2018-03-01T05:56:48.726Z,88.91
2018-03-01T05:59:18.849Z,89.55
2018-03-01T06:01:50.276Z,89.20
2018-03-01T06:04:19.417Z,89.35
2018-03-01T06:06:49.215Z,85.83
2018-03-01T06:09:19.452Z,85.85
2018-03-01T06:11:49.397Z,87.58
2018-03-01T06:14:19.078Z,87.64
2018-03-01T06:16:53.824Z,84.10
2018-03-01T06:19:24.885Z,83.04
2018-03-01T06:24:29.525Z,83.10
2018-03-01T06:26:58.749Z,87.07
2018-03-01T06:29:28.151Z,81.18
2018-03-01T06:31:57.385Z,83.82
2018-03-01T06:34:27.184Z,80.30
2018-03-01T06:36:56.306Z,81.20
2018-03-01T06:39:26.973Z,81.92
2018-03-01T06:41:56.190Z,83.29
2018-03-01T06:44:28.586Z,81.39
2018-03-01T06:46:58.610Z,81.39
2018-03-01T06:49:31.259Z,81.44
2018-03-01T06:52:02.919Z,85.51
2018-03-01T06:54:33.255Z,83.18
2018-03-01T06:57:02.455Z,84.21
2018-03-01T06:59:31.579Z,85.40
2018-03-01T07:02:00.855Z,81.82
2018-03-01T07:04:30.004Z,83.79
2018-03-01T07:06:59.184Z,83.52
2018-03-01T07:09:30.062Z,85.13
2018-03-01T07:11:59.929Z,86.46
2018-03-01T07:14:30.246Z,85.26
2018-03-01T07:16:59.926Z,87.07
2018-03-01T07:19:29.584Z,86.35
2018-03-01T07:22:00.481Z,86.83
2018-03-01T07:24:29.875Z,88.18
2018-03-01T07:27:00.675Z,85.64
2018-03-01T07:29:30.966Z,85.68
2018-03-01T07:32:01.057Z,84.93
2018-03-01T07:34:30.500Z,83.32
2018-03-01T07:36:59.721Z,84.01
2018-03-01T07:39:28.752Z,82.95
2018-03-01T07:41:58.752Z,83.83
2018-03-01T07:44:28.130Z,85.03
2018-03-01T07:46:57.270Z,82.71
2018-03-01T07:49:29.914Z,84.38
2018-03-01T07:51:59.368Z,82.89
2018-03-01T07:54:29.326Z,82.51
2018-03-01T07:56:58.428Z,83.24
2018-03-01T07:59:28.876Z,85.77
2018-03-01T08:02:01.089Z,83.59
2018-03-01T08:04:31.199Z,84.81
2018-03-01T08:09:37.011Z,85.50
2018-03-01T08:12:07.701Z,86.32
2018-03-01T08:14:38.333Z,85.94
2018-03-01T08:17:07.581Z,81.50
2018-03-01T08:19:36.584Z,81.50
2018-03-01T08:22:08.204Z,85.46
2018-03-01T08:24:37.503Z,84.25
2018-03-01T08:27:07.330Z,83.40
2018-03-01T08:29:39.468Z,86.91
2018-03-01T08:32:09.029Z,85.39
2018-03-01T08:34:39.213Z,83.09
2018-03-01T08:37:11.316Z,83.67
2018-03-01T08:39:41.105Z,81.97
2018-03-01T08:42:10.309Z,81.24
2018-03-01T08:44:39.580Z,79.71
2018-03-01T08:47:08.775Z,82.04
2018-03-01T08:49:39.020Z,84.35
2018-03-01T08:52:14.222Z,86.17
2018-03-01T08:54:45.205Z,81.73
2018-03-01T08:57:16.135Z,82.61
2018-03-01T08:59:45.665Z,80.62
2018-03-01T09:02:15.584Z,81.88
2018-03-01T09:04:46.384Z,80.83
2018-03-01T09:07:16.025Z,79.22
2018-03-01T09:09:44.933Z,82.67
2018-03-01T09:12:16.274Z,84.11
2018-03-01T09:14:46.270Z,82.47
2018-03-01T09:17:16.480Z,81.70
2018-03-01T09:19:47.295Z,81.60
2018-03-01T09:22:16.440Z,76.35
2018-03-01T09:24:46.257Z,80.15
2018-03-01T09:27:15.580Z,82.95
2018-03-01T09:29:44.809Z,80.39
2018-03-01T09:32:15.659Z,80.96
2018-03-01T09:34:46.718Z,78.16
2018-03-01T09:37:15.628Z,81.54
2018-03-01T09:39:44.908Z,81.80
2018-03-01T09:42:14.063Z,81.62
2018-03-01T09:44:43.328Z,80.23
2018-03-01T09:47:12.214Z,77.45
2018-03-01T09:49:42.398Z,77.41
2018-03-01T09:52:12.494Z,80.46
2018-03-01T09:54:44.273Z,79.02
2018-03-01T09:57:13.636Z,78.14
2018-03-01T09:59:42.915Z,81.61
2018-03-01T10:02:12.134Z,81.12
2018-03-01T10:04:41.955Z,82.93
2018-03-01T10:07:11.319Z,81.98
2018-03-01T10:09:40.743Z,80.84
2018-03-01T10:12:10.160Z,79.23
2018-03-01T10:14:39.439Z,79.79
2018-03-01T10:17:09.370Z,79.39
2018-03-01T10:19:38.928Z,76.54
2018-03-01T10:22:10.640Z,79.37
2018-03-01T10:24:40.700Z,77.44
2018-03-01T10:27:10.689Z,77.48
2018-03-01T10:29:45.290Z,76.44
2018-03-01T10:32:14.524Z,76.58
2018-03-01T10:34:44.485Z,76.82
2018-03-01T10:37:14.493Z,79.15
2018-03-01T10:39:44.493Z,79.54
2018-03-01T10:42:13.848Z,77.42
2018-03-01T10:44:43.709Z,76.80
2018-03-01T10:47:13.829Z,79.94
2018-03-01T10:49:43.980Z,81.07
2018-03-01T10:52:16.406Z,77.05
2018-03-01T10:54:52.324Z,77.67
2018-03-01T10:59:56.658Z,76.94
2018-03-01T11:02:27.393Z,75.07
2018-03-01T11:04:58.245Z,77.75
2018-03-01T11:07:27.335Z,77.61
2018-03-01T11:10:00.989Z,81.33
2018-03-01T11:12:31.239Z,76.13
2018-03-01T11:15:07.550Z,78.63
2018-03-01T11:17:37.529Z,79.43
2018-03-01T11:20:09.013Z,74.49
2018-03-01T11:22:38.140Z,76.65
2018-03-01T11:25:08.218Z,76.89
2018-03-01T11:27:38.890Z,78.20
2018-03-01T11:30:09.014Z,75.57
2018-03-01T11:32:38.570Z,77.88
2018-03-01T11:35:07.818Z,77.80
2018-03-01T11:37:39.570Z,74.08
2018-03-01T11:40:09.600Z,76.14
2018-03-01T11:42:39.838Z,71.93
2018-03-01T11:45:09.675Z,73.57
2018-03-01T11:47:39.385Z,77.09
2018-03-01T11:50:08.578Z,75.18
2018-03-01T11:52:42.864Z,78.10
2018-03-01T11:55:13.815Z,75.46
2018-03-01T11:57:42.913Z,76.46
2018-03-01T12:00:13.079Z,73.18
2018-03-01T12:02:42.250Z,76.39
2018-03-01T12:08:12.432Z,78.47
2018-03-01T12:10:42.102Z,79.56
2018-03-01T12:13:11.202Z,76.03
2018-03-01T12:15:43.164Z,79.38
2018-03-01T12:18:12.014Z,78.13
2018-03-01T12:20:41.388Z,79.47
2018-03-01T12:23:12.132Z,78.21
2018-03-01T12:25:41.263Z,76.66
2018-03-01T12:28:11.208Z,78.86
2018-03-01T12:30:42.016Z,79.19
2018-03-01T12:33:12.069Z,78.89
2018-03-01T12:35:41.175Z,80.55
2018-03-01T12:38:10.379Z,80.60
2018-03-01T12:40:40.437Z,80.18
2018-03-01T12:43:09.442Z,79.97
2018-03-01T12:45:38.699Z,76.95
2018-03-01T12:48:07.835Z,77.56
2018-03-01T12:50:37.930Z,78.67
2018-03-01T12:53:09.146Z,78.37
2018-03-01T12:55:39.105Z,78.59
2018-03-01T12:58:12.753Z,79.35
2018-03-01T13:03:10.442Z,75.79
2018-03-01T13:05:43.348Z,79.47
2018-03-01T13:08:12.561Z,79.66
2018-03-01T13:10:42.191Z,77.31
2018-03-01T13:13:11.385Z,78.32
2018-03-01T13:15:41.500Z,78.04
2018-03-01T13:18:13.944Z,81.31
2018-03-01T13:20:43.276Z,76.94
2018-03-01T13:23:12.398Z,78.30
2018-03-01T13:25:43.042Z,81.23
2018-03-01T13:28:12.006Z,80.35
2018-03-01T13:30:44.278Z,79.69
2018-03-01T13:33:33.238Z,78.04
2018-03-01T13:36:03.223Z,77.60
2018-03-01T13:38:33.083Z,80.11
2018-03-01T13:41:03.021Z,78.92
2018-03-01T13:46:51.662Z,79.26
2018-03-01T13:49:21.814Z,80.77
2018-03-01T13:51:50.913Z,78.51
2018-03-01T13:54:20.242Z,79.25
2018-03-01T13:56:49.417Z,78.07
2018-03-01T13:59:19.399Z,77.94
2018-03-01T14:01:49.171Z,78.98
2018-03-01T14:04:19.416Z,78.98
2018-03-01T14:09:51.678Z,80.03
2018-03-01T14:12:36.282Z,81.67
2018-03-01T14:15:06.459Z,78.34
2018-03-01T14:17:50.443Z,78.15
2018-03-01T14:20:37.201Z,77.90
2018-03-01T14:26:08.862Z,76.82
2018-03-01T14:28:43.782Z,78.12
2018-03-01T14:31:15.426Z,75.17
2018-03-01T14:33:45.742Z,73.81
2018-03-01T14:36:15.801Z,76.57
2018-03-01T14:38:45.168Z,75.59
2018-03-01T14:41:14.278Z,72.16
2018-03-01T14:46:20.272Z,75.27
2018-03-01T14:48:49.487Z,76.13
2018-03-01T14:51:18.778Z,75.46
2018-03-01T14:53:49.612Z,76.26
2018-03-01T14:56:20.179Z,75.39
2018-03-01T14:58:50.022Z,72.11
2018-03-01T15:01:19.573Z,73.62
2018-03-01T15:03:48.661Z,73.98
2018-03-01T15:06:17.862Z,75.13
2018-03-01T15:08:48.289Z,72.72
2018-03-01T15:11:22.982Z,71.65
2018-03-01T15:13:53.043Z,73.50
2018-03-01T15:16:23.218Z,76.33
2018-03-01T15:18:53.293Z,74.34
2018-03-01T15:21:22.542Z,74.67
2018-03-01T15:23:51.733Z,71.82
2018-03-01T15:26:21.987Z,74.62
2018-03-01T15:28:51.049Z,75.66
2018-03-01T15:31:20.115Z,77.29
2018-03-01T15:36:25.686Z,74.09
2018-03-01T15:38:57.318Z,73.59
2018-03-01T15:41:27.628Z,74.05
2018-03-01T15:43:57.883Z,73.54
2018-03-01T15:46:27.808Z,73.19
2018-03-01T15:51:31.943Z,72.60
2018-03-01T15:54:01.248Z,75.32
2018-03-01T15:56:32.422Z,74.56
2018-03-01T15:59:02.368Z,74.13
2018-03-01T16:01:33.018Z,73.14
2018-03-01T16:04:03.794Z,75.98
2018-03-01T16:06:33.067Z,76.64
2018-03-01T16:09:02.378Z,77.12
2018-03-01T16:11:32.697Z,75.66
2018-03-01T16:14:01.964Z,75.24
2018-03-01T16:16:30.952Z,77.95
2018-03-01T16:19:02.643Z,75.94
2018-03-01T16:21:32.727Z,77.09
2018-03-01T16:24:01.719Z,76.06
2018-03-01T16:26:31.772Z,77.12
2018-03-01T16:29:02.424Z,76.25
2018-03-01T16:31:31.435Z,78.02
2018-03-01T16:34:01.557Z,77.93
2018-03-01T16:36:30.786Z,76.87
2018-03-01T16:38:59.884Z,78.07
2018-03-01T16:44:03.750Z,78.38
2018-03-01T16:46:34.849Z,76.12
2018-03-01T16:49:09.953Z,79.03
2018-03-01T16:51:39.088Z,80.30
2018-03-01T16:54:09.173Z,80.32
2018-03-01T16:56:40.846Z,80.42
2018-03-01T16:59:10.061Z,80.23
2018-03-01T17:01:39.923Z,81.34
2018-03-01T17:04:10.350Z,81.95
2018-03-01T17:06:40.625Z,81.87
2018-03-01T17:09:09.938Z,80.95
2018-03-01T17:11:39.033Z,81.34
2018-03-01T17:14:09.797Z,82.06
2018-03-01T17:16:39.108Z,81.40
2018-03-01T17:19:08.303Z,80.89
2018-03-01T17:21:38.286Z,80.53
2018-03-01T17:24:08.434Z,81.63
2018-03-01T17:26:38.478Z,79.61
2018-03-01T17:29:10.033Z,81.04
2018-03-01T17:31:41.644Z,81.40
2018-03-01T17:34:11.755Z,81.30
2018-03-01T17:36:41.487Z,82.36
2018-03-01T17:41:45.952Z,82.56
2018-03-01T17:44:18.038Z,82.35
2018-03-01T17:49:29.203Z,82.81
2018-03-01T17:52:01.313Z,82.83
2018-03-01T17:54:30.537Z,81.59
2018-03-01T17:56:59.568Z,81.98
2018-03-01T17:59:28.868Z,82.69
2018-03-01T18:01:58.229Z,83.76
2018-03-01T18:04:28.862Z,82.71
2018-03-01T18:06:59.659Z,84.02
2018-03-01T18:09:30.556Z,83.77
2018-03-01T18:12:00.651Z,84.26
2018-03-01T18:14:30.091Z,83.94
2018-03-01T18:16:59.387Z,84.05
2018-03-01T18:22:05.298Z,84.54
2018-03-01T18:24:35.283Z,84.81
2018-03-01T18:27:06.450Z,85.29
2018-03-01T18:29:35.542Z,85.03
2018-03-01T18:32:05.397Z,85.73
2018-03-01T18:34:34.775Z,85.44
2018-03-01T18:37:04.153Z,85.96
2018-03-01T18:39:33.263Z,85.78
2018-03-01T18:42:05.064Z,84.29
2018-03-01T18:44:34.705Z,84.14
2018-03-01T18:47:04.767Z,85.33
2018-03-01T18:49:36.982Z,85.27
2018-03-01T18:52:06.164Z,84.98
2018-03-01T18:54:36.423Z,84.74
2018-03-01T18:57:06.845Z,84.88
2018-03-01T18:59:36.452Z,85.11
2018-03-01T19:02:06.545Z,84.26
2018-03-01T19:04:37.365Z,82.69
2018-03-01T19:07:07.536Z,85.69
2018-03-01T19:09:37.411Z,84.62
2018-03-01T19:12:09.324Z,83.01
2018-03-01T19:14:38.467Z,83.81
2018-03-01T19:17:09.145Z,83.54
2018-03-01T19:22:13.995Z,85.04
2018-03-01T19:24:44.235Z,84.47
2018-03-01T19:27:17.737Z,84.55
2018-03-01T19:29:46.872Z,84.69
2018-03-01T19:32:16.807Z,84.83
2018-03-01T19:34:46.865Z,84.00
2018-03-01T19:37:16.766Z,84.19
2018-03-01T19:39:49.464Z,84.27
2018-03-01T19:42:18.552Z,84.29
2018-03-01T19:44:47.732Z,83.74
2018-03-01T19:47:18.536Z,85.53
2018-03-01T19:49:49.288Z,84.51
2018-03-01T19:52:18.670Z,84.12
2018-03-01T19:54:47.870Z,84.34
2018-03-01T19:57:19.647Z,82.99
2018-03-01T19:59:48.775Z,83.27
2018-03-01T20:02:17.979Z,83.73
2018-03-01T20:04:47.031Z,83.91
2018-03-01T20:07:16.465Z,84.76
2018-03-01T20:09:45.759Z,84.67
2018-03-01T20:12:14.973Z,84.69
2018-03-01T20:14:45.142Z,85.26
2018-03-01T20:17:14.741Z,83.76
2018-03-01T20:19:46.767Z,84.25
2018-03-01T20:22:17.384Z,84.40
2018-03-01T20:24:46.707Z,84.46
2018-03-01T20:29:51.057Z,84.15
2018-03-01T20:32:21.031Z,82.97
2018-03-01T20:34:50.241Z,82.70
2018-03-01T20:37:19.547Z,82.91
2018-03-01T20:39:49.109Z,81.71
2018-03-01T20:42:18.637Z,81.30
2018-03-01T20:44:48.222Z,81.95
2018-03-01T20:47:17.305Z,83.23
2018-03-01T20:52:21.274Z,82.04
2018-03-01T20:54:52.949Z,82.88
2018-03-01T20:57:23.015Z,82.87
2018-03-01T20:59:52.914Z,83.32
2018-03-01T21:02:22.035Z,82.53
2018-03-01T21:04:52.935Z,83.59
2018-03-01T21:07:22.070Z,82.74
2018-03-01T21:09:51.690Z,82.96
2018-03-01T21:12:21.510Z,82.86
2018-03-01T21:14:50.687Z,81.25
2018-03-01T21:17:19.940Z,81.83
2018-03-01T21:19:49.892Z,82.54
2018-03-01T21:22:19.951Z,82.12
2018-03-01T21:24:49.229Z,82.40
2018-03-01T21:27:18.978Z,82.34
2018-03-01T21:29:48.043Z,80.38
2018-03-01T21:32:18.310Z,80.60
2018-03-01T21:34:50.156Z,81.24
2018-03-01T21:37:19.323Z,81.53
2018-03-01T21:39:48.443Z,80.76
2018-03-01T21:42:17.772Z,81.77
2018-03-01T21:44:48.548Z,78.94
2018-03-01T21:47:17.748Z,80.72
2018-03-01T21:49:48.620Z,77.58
2018-03-01T21:52:18.681Z,78.98
2018-03-01T21:54:48.630Z,78.11
2018-03-01T21:57:20.385Z,78.78
2018-03-01T21:59:56.035Z,78.76
2018-03-01T22:02:28.021Z,78.46
2018-03-01T22:04:57.457Z,78.43
2018-03-01T22:07:27.255Z,77.95
2018-03-01T22:09:57.100Z,77.52
2018-03-01T22:12:26.338Z,79.01
2018-03-01T22:14:55.459Z,77.68
2018-03-01T22:17:25.371Z,78.09
2018-03-01T22:19:55.201Z,76.96
2018-03-01T22:22:24.172Z,77.16
2018-03-01T22:24:53.372Z,77.48
2018-03-01T22:27:22.482Z,79.27
2018-03-01T22:29:51.607Z,79.28
2018-03-01T22:32:21.031Z,78.46
2018-03-01T22:34:50.283Z,78.82
2018-03-01T22:37:19.388Z,79.41
2018-03-01T22:39:50.292Z,79.10
2018-03-01T22:42:19.300Z,77.91
2018-03-01T22:44:48.501Z,79.56
2018-03-01T22:47:18.450Z,78.79
2018-03-01T22:49:48.220Z,78.14
2018-03-01T22:52:17.287Z,77.55
2018-03-01T22:54:47.258Z,77.53
2018-03-01T22:57:18.879Z,77.50
2018-03-01T22:59:49.762Z,77.53
2018-03-01T23:02:18.892Z,76.76
2018-03-01T23:04:48.097Z,77.77
2018-03-01T23:07:17.205Z,78.27
2018-03-01T23:09:46.541Z,78.06
2018-03-01T23:12:15.628Z,78.74
2018-03-01T23:14:45.634Z,77.62
2018-03-01T23:17:15.776Z,76.93
2018-03-01T23:19:44.772Z,76.06
2018-03-01T23:22:14.670Z,75.85
2018-03-01T23:24:44.662Z,75.43
2018-03-01T23:27:13.781Z,75.93
2018-03-01T23:29:42.884Z,75.69
2018-03-01T23:32:11.840Z,75.57
2018-03-01T23:34:41.036Z,74.08
2018-03-01T23:37:10.202Z,75.57
2018-03-01T23:39:39.347Z,75.47
2018-03-01T23:42:08.434Z,74.85
2018-03-01T23:44:41.611Z,75.42
2018-03-01T23:47:10.790Z,74.76
2018-03-01T23:49:40.034Z,73.82
2018-03-01T23:52:09.316Z,74.18
2018-03-01T23:54:39.645Z,73.62
2018-03-01T23:57:08.670Z,74.93
2018-03-01T23:59:38.997Z,75.02
